Time;durP1;ratioP1;P1;durP2;ratioP2;P2;SDS_P1;SDS_P2;PMS_P1;PMS_P2;Temp;Humidity;BMP_temperature;BMP_pressure;BME280_temperature;BME280_humidity;BME280_pressure;Samples;Min_cycle;Max_cycle;Signal;HPM_P1;HPM_P2
2021/06/23 00:00:14;;;;;;;15.45;5.63;;;;;;;23.49;57.57;99239.07;370725;108;1961886;-71
2021/06/23 00:01:26;;;;;;;16.72;6.18;;;;;;;23.59;57.69;99244.41;395495;104;2071056;-71
2021/06/23 00:02:31;;;;;;;15.10;4.96;;;;;;;23.47;57.67;99247.66;371240;105;2937043;-72
2021/06/23 00:03:45;;;;;;;15.23;5.43;;;;;;;23.57;57.80;99243.08;392302;103;1986825;-71
2021/06/23 00:04:51;;;;;;;14.28;5.55;;;;;;;23.45;57.69;99247.14;375282;106;1962010;-70
2021/06/23 00:05:59;;;;;;;22.77;6.22;;;;;;;23.43;57.78;99245.80;375231;105;1963917;-68
2021/06/23 00:07:04;;;;;;;17.02;6.13;;;;;;;23.41;57.76;99246.09;326120;105;2190043;-72
2021/06/23 00:08:10;;;;;;;17.62;5.40;;;;;;;23.40;57.80;99244.47;328082;107;2137968;-72
2021/06/23 00:09:22;;;;;;;19.23;6.35;;;;;;;23.49;57.83;99237.13;390739;104;2072025;-72
2021/06/23 00:10:28;;;;;;;17.08;6.54;;;;;;;23.39;57.97;99239.23;376971;107;1962047;-71
2021/06/23 00:11:42;;;;;;;13.97;5.60;;;;;;;23.37;57.98;99239.56;364835;109;1962051;-71
2021/06/23 00:12:53;;;;;;;17.01;6.06;;;;;;;23.37;58.02;99253.34;377214;107;1962007;-72
2021/06/23 00:14:06;;;;;;;13.98;5.57;;;;;;;23.48;58.04;99245.72;386592;106;1986949;-72
2021/06/23 00:15:17;;;;;;;20.02;6.16;;;;;;;23.35;58.02;99238.22;365636;107;1961955;-70
2021/06/23 00:16:23;;;;;;;16.48;5.59;;;;;;;23.34;57.98;99242.08;353457;109;1962076;-70
2021/06/23 00:17:29;;;;;;;16.51;5.62;;;;;;;23.33;57.78;99245.97;345812;108;1961956;-71
2021/06/23 00:18:41;;;;;;;15.15;5.57;;;;;;;23.45;57.92;99249.08;385924;106;2073106;-71
2021/06/23 00:19:46;;;;;;;19.36;5.04;;;;;;;23.33;57.88;99243.20;373484;107;1961828;-69
2021/06/23 00:20:52;;;;;;;17.49;5.53;;;;;;;23.31;57.79;99246.25;374152;107;1962982;-71
2021/06/23 00:22:05;;;;;;;14.79;5.46;;;;;;;23.41;57.89;99237.82;342405;106;2774017;-72
2021/06/23 00:23:10;;;;;;;13.12;5.29;;;;;;;23.30;57.94;99236.36;342470;108;1961959;-71
2021/06/23 00:24:28;;;;;;;14.07;5.12;;;;;;;23.40;57.98;99238.14;394302;104;1986037;-71
2021/06/23 00:25:33;;;;;;;12.86;5.30;;;;;;;23.28;57.85;99235.02;376721;105;1962014;-70
2021/06/23 00:26:46;;;;;;;18.46;5.70;;;;;;;23.37;58.02;99242.31;394755;104;1986930;-71
2021/06/23 00:27:51;;;;;;;12.36;4.59;;;;;;;23.26;58.05;99241.66;376227;107;1962059;-72
2021/06/23 00:29:14;;;;;;;14.85;5.42;;;;;;;23.26;57.99;99238.09;373450;107;1960791;-71
2021/06/23 00:30:27;;;;;;;13.81;5.39;;;;;;;23.35;57.95;99250.05;395719;104;1986084;-72
2021/06/23 00:31:34;;;;;;;18.51;5.68;;;;;;;23.23;57.92;99244.18;309951;107;2326276;-72
2021/06/23 00:32:48;;;;;;;15.68;5.26;;;;;;;23.33;58.06;99244.02;397401;101;2071991;-71
2021/06/23 00:33:55;;;;;;;15.38;5.32;;;;;;;23.21;58.06;99241.74;378212;105;1964041;-71
2021/06/23 00:35:19;;;;;;;18.76;5.27;;;;;;;23.20;58.10;99239.27;376099;105;1962003;-71
2021/06/23 00:36:32;;;;;;;12.41;4.69;;;;;;;23.29;58.30;99237.48;394366;103;1972983;-71
2021/06/23 00:37:44;;;;;;;13.59;5.33;;;;;;;23.28;58.10;99240.53;403748;101;2073038;-70
2021/06/23 00:39:07;;;;;;;19.04;5.44;;;;;;;23.18;58.16;99238.75;382399;105;1964010;-72
2021/06/23 00:40:15;;;;;;;14.66;5.16;;;;;;;23.18;58.03;99235.99;381091;103;1961991;-70
2021/06/23 00:41:20;;;;;;;14.39;4.93;;;;;;;23.16;57.97;99239.06;381318;103;1961981;-71
2021/06/23 00:42:34;;;;;;;11.72;4.58;;;;;;;23.30;58.07;99243.81;341561;101;2458061;-72
2021/06/23 00:43:39;;;;;;;14.44;4.89;;;;;;;23.19;58.00;99245.91;373923;107;1961984;-71
2021/06/23 00:44:53;;;;;;;15.44;5.16;;;;;;;23.31;58.03;99237.17;391899;104;2073022;-71
2021/06/23 00:45:59;;;;;;;15.98;4.61;;;;;;;23.20;58.00;99231.01;356023;106;1961972;-71
2021/06/23 00:47:26;;;;;;;13.03;4.81;;;;;;;23.20;57.95;99242.84;374082;107;1961975;-71
2021/06/23 00:48:31;;;;;;;16.60;5.21;;;;;;;23.18;57.99;99242.34;366223;109;1962034;-72
2021/06/23 00:49:45;;;;;;;13.93;5.57;;;;;;;23.28;58.07;99235.02;384307;106;2071858;-71
2021/06/23 00:50:52;;;;;;;12.70;5.03;;;;;;;23.17;58.00;99228.86;364101;111;1961919;-72
2021/06/23 00:52:08;;;;;;;13.23;4.69;;;;;;;23.08;58.04;99225.97;341105;107;2590065;-72
2021/06/23 00:53:18;;;;;;;15.27;5.03;;;;;;;23.14;57.95;99238.55;364119;110;1962928;-72
2021/06/23 00:54:30;;;;;;;13.27;4.94;;;;;;;23.25;57.98;99234.50;380359;109;1986953;-72
2021/06/23 00:55:37;;;;;;;10.96;4.06;;;;;;;23.14;57.98;99237.73;363340;109;1960959;-72
2021/06/23 00:56:49;;;;;;;15.27;4.84;;;;;;;23.22;57.83;99235.10;392502;104;2073978;-71
2021/06/23 00:57:56;;;;;;;15.96;4.86;;;;;;;23.11;57.75;99233.64;367371;109;1960985;-71
2021/06/23 00:59:20;;;;;;;14.91;5.09;;;;;;;23.10;57.78;99236.67;380050;106;1964775;-71
2021/06/23 01:00:35;;;;;;;15.81;4.95;;;;;;;23.20;57.93;99242.03;398085;104;1964972;-72
2021/06/23 01:01:43;;;;;;;14.24;4.02;;;;;;;23.06;57.93;99241.16;381647;105;1961984;-71
2021/06/23 01:02:49;;;;;;;13.95;4.71;;;;;;;23.04;57.86;99235.94;377766;107;1960827;-71
2021/06/23 01:04:02;;;;;;;13.39;5.18;;;;;;;23.12;58.07;99240.77;400190;104;1963929;-71
2021/06/23 01:05:11;;;;;;;14.46;5.38;;;;;;;22.97;58.22;99233.58;380200;105;1960812;-72
2021/06/23 01:06:17;;;;;;;14.73;5.08;;;;;;;22.96;58.43;99233.83;350877;107;1991992;-69
2021/06/23 01:07:29;;;;;;;13.62;5.33;;;;;;;23.04;58.30;99234.00;390959;104;2070618;-71
2021/06/23 01:08:43;;;;;;;11.82;4.91;;;;;;;23.04;58.45;99241.45;349240;103;2772051;-71
2021/06/23 01:10:08;;;;;;;11.17;4.33;;;;;;;22.92;58.43;99241.07;372977;107;1960881;-72
2021/06/23 01:11:22;;;;;;;12.51;4.54;;;;;;;22.98;58.48;99237.14;372424;112;1963859;-70
2021/06/23 01:12:44;;;;;;;11.35;4.22;;;;;;;22.94;58.54;99236.91;389704;104;1984894;-71
2021/06/23 01:14:02;;;;;;;13.05;4.42;;;;;;;22.81;58.36;99240.37;354955;108;1960913;-70
2021/06/23 01:15:15;;;;;;;12.27;4.37;;;;;;;22.89;58.31;99233.38;332052;104;2458995;-70
2021/06/23 01:16:22;;;;;;;11.21;4.06;;;;;;;22.76;58.35;99235.78;378760;106;1961936;-70
2021/06/23 01:17:48;;;;;;;12.09;4.25;;;;;;;22.76;58.25;99234.96;324547;106;2190883;-70
2021/06/23 01:18:56;;;;;;;14.36;4.01;;;;;;;22.73;58.20;99235.53;371999;108;1962007;-70
2021/06/23 01:20:11;;;;;;;13.28;4.68;;;;;;;22.84;58.31;99231.54;385149;106;1994980;-70
2021/06/23 01:21:17;;;;;;;10.73;4.14;;;;;;;22.74;58.32;99245.45;335345;109;2025975;-70
2021/06/23 01:22:29;;;;;;;12.11;4.23;;;;;;;22.83;58.21;99241.71;396256;104;2082948;-71
2021/06/23 01:23:35;;;;;;;14.39;4.85;;;;;;;22.73;58.26;99235.53;374164;107;1970027;-72
2021/06/23 01:24:59;;;;;;;18.16;4.02;;;;;;;22.71;58.21;99237.79;365625;110;1961984;-70
2021/06/23 01:26:11;;;;;;;14.15;4.16;;;;;;;22.80;58.24;99239.56;387631;104;2072987;-72
2021/06/23 01:27:18;;;;;;;11.67;4.16;;;;;;;22.68;58.21;99241.95;354850;109;2852964;-71
2021/06/23 01:28:25;;;;;;;12.36;4.18;;;;;;;22.66;58.31;99244.17;334981;107;2724005;-71
2021/06/23 01:29:38;;;;;;;13.94;3.33;;;;;;;22.75;58.32;99238.81;385195;106;1961930;-71
2021/06/23 01:31:02;;;;;;;11.93;3.73;;;;;;;22.61;58.30;99236.80;368340;109;1970007;-71
2021/06/23 01:32:11;;;;;;;11.99;3.85;;;;;;;22.61;58.36;99242.30;336299;109;2646868;-71
2021/06/23 01:33:17;;;;;;;12.84;4.29;;;;;;;22.59;58.46;99238.20;320964;109;2157937;-71
2021/06/23 01:34:29;;;;;;;12.63;4.76;;;;;;;22.69;58.56;99240.01;387421;106;2071894;-70
2021/06/23 01:35:35;;;;;;;13.24;4.43;;;;;;;22.56;58.53;99242.37;372838;107;1962011;-71
2021/06/23 01:36:47;;;;;;;10.35;3.49;;;;;;;22.65;58.65;99242.55;367771;104;2536000;-71
2021/06/23 01:37:53;;;;;;;10.29;4.04;;;;;;;22.53;58.65;99242.15;320905;105;2236010;-71
2021/06/23 01:39:16;;;;;;;8.99;3.50;;;;;;;22.51;58.68;99236.92;376348;107;1962869;-71
2021/06/23 01:40:30;;;;;;;11.99;3.61;;;;;;;22.61;58.78;99242.30;347317;104;2482848;-71
2021/06/23 01:41:35;;;;;;;10.21;3.63;;;;;;;22.50;58.86;99234.48;376270;107;1961927;-69
2021/06/23 01:42:47;;;;;;;10.39;3.46;;;;;;;22.63;58.87;99242.02;393699;104;1986980;-70
2021/06/23 01:43:52;;;;;;;11.82;3.85;;;;;;;22.54;58.74;99235.52;368375;109;1963047;-70
2021/06/23 01:45:16;;;;;;;8.57;3.94;;;;;;;22.55;58.62;99237.17;320605;108;2188950;-71
2021/06/23 01:46:28;;;;;;;11.91;4.42;;;;;;;22.66;58.54;99233.16;364753;110;2071895;-71
2021/06/23 01:47:33;;;;;;;10.91;4.58;;;;;;;22.55;58.59;99235.23;350796;114;1963037;-70
2021/06/23 01:48:45;;;;;;;10.46;3.37;;;;;;;22.65;58.72;99236.20;393914;104;1986049;-70
2021/06/23 01:49:52;;;;;;;12.78;3.63;;;;;;;22.50;58.73;99237.23;329260;107;2779013;-71
2021/06/23 01:51:18;;;;;;;11.65;3.77;;;;;;;22.48;58.81;99231.20;353824;107;1962014;-71
2021/06/23 01:52:30;;;;;;;10.62;3.30;;;;;;;22.56;58.91;99231.36;397050;104;1986013;-70
2021/06/23 01:53:37;;;;;;;9.30;4.19;;;;;;;22.45;58.86;99232.61;377025;107;1962030;-70
2021/06/23 01:54:50;;;;;;;8.80;3.63;;;;;;;22.52;58.97;99233.08;385754;104;1966047;-71
2021/06/23 01:55:56;;;;;;;8.11;3.17;;;;;;;22.39;59.00;99231.86;377220;107;1962068;-71
2021/06/23 01:57:22;;;;;;;10.12;4.01;;;;;;;22.39;59.08;99236.55;373185;107;1962057;-70
2021/06/23 01:58:29;;;;;;;12.93;4.38;;;;;;;22.36;59.12;99232.45;356746;107;2915031;-71
2021/06/23 01:59:42;;;;;;;10.13;3.34;;;;;;;22.46;59.28;99228.73;392027;104;1988023;-70
2021/06/23 02:00:54;;;;;;;12.11;4.13;;;;;;;22.35;59.25;99227.23;373092;105;1963855;-71
2021/06/23 02:02:29;;;;;;;11.18;4.08;;;;;;;22.46;59.38;99236.17;364745;104;2538074;-70
2021/06/23 02:03:58;;;;;;;12.62;4.26;;;;;;;22.35;59.33;99240.99;377088;107;1963972;-71
2021/06/23 02:05:27;;;;;;;11.87;4.35;;;;;;;22.46;59.43;99236.98;393597;104;1986024;-71
2021/06/23 02:06:52;;;;;;;10.61;3.94;;;;;;;22.35;59.41;99229.98;377808;107;1961904;-70
2021/06/23 02:08:25;;;;;;;10.46;4.18;;;;;;;22.34;59.41;99237.43;349571;107;1963986;-71
2021/06/23 02:09:37;;;;;;;10.47;4.13;;;;;;;22.34;59.41;99242.12;365659;109;1962068;-69
2021/06/23 02:11:04;;;;;;;12.92;3.85;;;;;;;22.44;59.55;99239.24;374198;104;1988070;-69
2021/06/23 02:12:28;;;;;;;10.09;4.01;;;;;;;22.43;59.81;99239.52;392200;103;1986896;-70
2021/06/23 02:13:58;;;;;;;10.35;4.02;;;;;;;22.33;59.79;99240.46;375851;107;1961975;-71
2021/06/23 02:15:10;;;;;;;10.54;3.99;;;;;;;22.41;59.91;99242.56;348060;106;2125873;-70
2021/06/23 02:16:25;;;;;;;10.69;4.47;;;;;;;22.30;59.78;99246.55;365975;110;1962050;-70
2021/06/23 02:17:33;;;;;;;9.07;3.88;;;;;;;22.32;59.82;99244.34;362302;111;1962943;-70
2021/06/23 02:18:45;;;;;;;12.98;4.54;;;;;;;22.42;59.96;99246.97;389273;104;2072849;-69
2021/06/23 02:19:54;;;;;;;9.62;3.32;;;;;;;22.32;59.81;99244.34;364191;109;1962858;-70
2021/06/23 02:21:07;;;;;;;10.42;3.49;;;;;;;22.44;59.83;99243.91;384615;104;2879030;-70
2021/06/23 02:22:22;;;;;;;12.24;4.24;;;;;;;22.46;59.67;99250.75;395600;104;2073087;-70
2021/06/23 02:23:30;;;;;;;13.08;4.01;;;;;;;22.36;59.69;99250.88;370796;107;1962094;-70
2021/06/23 02:25:10;;;;;;;10.19;3.79;;;;;;;22.49;59.72;99254.84;413224;99;1988980;-70
2021/06/23 02:26:19;;;;;;;13.09;4.40;;;;;;;22.38;59.63;99254.16;357145;103;2606937;-70
2021/06/23 02:27:31;;;;;;;9.79;3.94;;;;;;;22.51;59.70;99253.44;391634;104;2072025;-69
2021/06/23 02:28:38;;;;;;;14.38;4.48;;;;;;;22.42;59.57;99249.72;368219;108;1961963;-68
2021/06/23 02:30:04;;;;;;;13.77;4.04;;;;;;;22.43;59.47;99251.34;360029;113;1962976;-69
2021/06/23 02:31:17;;;;;;;14.26;4.44;;;;;;;22.57;59.46;99244.02;399065;103;1986988;-69
2021/06/23 02:32:28;;;;;;;10.14;3.43;;;;;;;22.47;59.38;99249.66;364195;111;1962003;-69
2021/06/23 02:33:35;;;;;;;12.03;4.07;;;;;;;22.49;59.25;99252.09;369591;108;1962014;-70
2021/06/23 02:34:54;;;;;;;8.50;3.12;;;;;;;22.62;59.17;99245.87;394031;104;1961955;-70
2021/06/23 02:36:04;;;;;;;13.85;3.64;;;;;;;22.55;59.13;99253.69;375377;107;1969824;-71
2021/06/23 02:37:15;;;;;;;10.61;3.86;;;;;;;22.56;59.00;99258.88;378285;107;1962170;-70
2021/06/23 02:38:27;;;;;;;11.28;3.93;;;;;;;22.69;58.96;99253.78;378923;104;2917094;-68
2021/06/23 02:39:35;;;;;;;14.35;3.49;;;;;;;22.60;58.84;99250.88;356051;108;1963036;-69
2021/06/23 02:40:48;;;;;;;11.42;4.28;;;;;;;22.73;58.88;99260.31;397163;104;1975916;-69
2021/06/23 02:41:55;;;;;;;10.18;4.27;;;;;;;22.63;58.80;99253.03;306543;106;2429000;-69
2021/06/23 02:43:19;;;;;;;12.41;4.24;;;;;;;22.64;58.89;99251.91;371946;107;1961966;-70
2021/06/23 02:44:31;;;;;;;11.83;4.31;;;;;;;22.76;58.90;99259.74;393783;104;2072030;-70
2021/06/23 02:45:37;;;;;;;14.75;4.72;;;;;;;22.67;58.91;99258.75;374303;107;1962046;-71
2021/06/23 02:46:52;;;;;;;10.97;3.92;;;;;;;22.78;59.02;99261.09;390496;106;1985927;-69
2021/06/23 02:47:59;;;;;;;13.17;3.96;;;;;;;22.69;58.91;99256.53;371045;107;1962106;-71
2021/06/23 02:49:29;;;;;;;13.28;4.62;;;;;;;22.70;58.93;99258.97;362746;108;1962981;-69
2021/06/23 02:50:39;;;;;;;16.69;4.57;;;;;;;22.71;58.87;99248.80;371538;109;1962006;-72
2021/06/23 02:51:54;;;;;;;10.72;3.64;;;;;;;22.84;59.00;99250.81;393360;104;1987003;-71
2021/06/23 02:53:03;;;;;;;13.78;3.92;;;;;;;22.75;58.93;99247.89;374464;107;1962017;-70
2021/06/23 02:54:15;;;;;;;14.33;4.35;;;;;;;22.93;58.70;99253.71;384212;106;1987006;-70
2021/06/23 02:55:23;;;;;;;8.34;3.91;;;;;;;22.84;58.55;99256.33;363372;110;1962039;-71
2021/06/23 02:56:50;;;;;;;11.57;4.70;;;;;;;22.87;58.40;99255.72;357107;111;2840060;-69
2021/06/23 02:57:57;;;;;;;11.87;4.37;;;;;;;22.92;58.12;99252.90;361112;111;1962045;-68
2021/06/23 02:59:10;;;;;;;8.89;3.59;;;;;;;23.06;57.97;99252.19;382799;106;2962999;-71
2021/06/23 03:00:18;;;;;;;10.72;3.85;;;;;;;22.96;57.80;99256.71;371348;107;1962946;-71
2021/06/23 03:01:31;;;;;;;10.15;3.39;;;;;;;23.11;57.71;99252.11;390796;104;1987029;-71
2021/06/23 03:02:38;;;;;;;10.84;3.64;;;;;;;23.02;57.61;99252.78;373200;107;1962041;-71
2021/06/23 03:04:02;;;;;;;13.13;3.79;;;;;;;23.07;57.39;99256.56;353191;107;1960791;-71
2021/06/23 03:05:10;;;;;;;11.29;3.67;;;;;;;23.12;57.22;99254.55;368914;108;1961921;-71
2021/06/23 03:06:23;;;;;;;9.87;3.69;;;;;;;23.26;57.19;99255.44;349610;104;2179974;-72
2021/06/23 03:07:32;;;;;;;8.82;3.42;;;;;;;23.17;57.15;99254.47;372154;107;1961997;-70
2021/06/23 03:08:44;;;;;;;10.03;4.03;;;;;;;23.33;57.15;99256.98;393693;104;1972996;-71
2021/06/23 03:09:54;;;;;;;7.71;3.40;;;;;;;23.23;57.16;99263.47;374461;107;1963054;-71
2021/06/23 03:11:39;;;;;;;10.81;3.87;;;;;;;23.25;57.13;99264.00;374308;107;1961976;-72
2021/06/23 03:12:51;;;;;;;15.26;3.91;;;;;;;23.39;57.26;99259.38;387575;106;1986882;-71
2021/06/23 03:14:15;;;;;;;10.74;3.66;;;;;;;23.30;57.12;99252.89;332469;109;2652960;-72
2021/06/23 03:15:27;;;;;;;11.44;4.59;;;;;;;23.39;57.10;99264.89;395191;104;2072962;-71
2021/06/23 03:16:35;;;;;;;9.86;4.13;;;;;;;23.30;56.92;99254.84;378504;106;1961898;-71
2021/06/23 03:17:47;;;;;;;11.93;4.09;;;;;;;23.40;56.82;99255.48;392760;104;2071937;-72
2021/06/23 03:18:53;;;;;;;12.91;3.98;;;;;;;23.31;56.69;99254.52;371051;107;1961935;-72
2021/06/23 03:20:06;;;;;;;14.28;4.92;;;;;;;23.32;56.69;99253.42;359303;112;1962026;-71
2021/06/23 03:21:18;;;;;;;8.51;3.57;;;;;;;23.46;56.57;99258.97;399107;104;1985976;-71
2021/06/23 03:22:25;;;;;;;10.71;3.56;;;;;;;23.36;56.63;99256.38;381204;105;1962035;-71
2021/06/23 03:23:30;;;;;;;8.80;4.08;;;;;;;23.37;56.48;99255.28;374753;107;1962020;-73
2021/06/23 03:24:43;;;;;;;11.08;3.77;;;;;;;23.51;56.33;99260.84;392656;104;2072137;-72
2021/06/23 03:25:50;;;;;;;9.07;3.25;;;;;;;23.40;56.34;99251.92;329622;105;2854947;-71
2021/06/23 03:27:02;;;;;;;11.77;4.34;;;;;;;23.53;56.38;99253.91;385929;106;1972956;-72
2021/06/23 03:28:11;;;;;;;10.33;3.42;;;;;;;23.45;56.31;99254.59;367940;109;1964058;-72
2021/06/23 03:29:29;;;;;;;9.60;4.06;;;;;;;23.58;56.14;99256.58;393614;104;1986046;-72
2021/06/23 03:30:37;;;;;;;10.90;4.53;;;;;;;23.46;56.09;99257.03;336658;107;2689020;-71
2021/06/23 03:31:44;;;;;;;14.12;4.46;;;;;;;23.48;56.20;99256.74;373532;107;1961987;-72
2021/06/23 03:32:56;;;;;;;13.43;5.13;;;;;;;23.61;56.20;99258.72;394419;104;1971949;-71
2021/06/23 03:34:01;;;;;;;9.90;3.69;;;;;;;23.51;56.08;99258.08;364483;109;2913911;-70
2021/06/23 03:35:22;;;;;;;10.66;3.73;;;;;;;23.65;56.05;99262.49;379124;108;1986009;-71
2021/06/23 03:36:27;;;;;;;9.37;3.72;;;;;;;23.54;56.04;99252.77;360662;112;1962973;-70
2021/06/23 03:37:53;;;;;;;11.70;4.34;;;;;;;23.56;56.05;99255.23;359711;112;1962006;-70
2021/06/23 03:39:05;;;;;;;14.88;4.93;;;;;;;23.71;55.88;99252.22;392286;102;1984587;-72
2021/06/23 03:40:14;;;;;;;13.23;4.67;;;;;;;23.62;55.84;99259.53;366329;108;1963950;-71
2021/06/23 03:41:26;;;;;;;9.03;3.37;;;;;;;23.75;55.66;99244.17;399020;104;1971891;-72
2021/06/23 03:42:31;;;;;;;16.48;5.24;;;;;;;23.64;55.71;99252.59;382694;105;1961999;-72
2021/06/23 03:43:43;;;;;;;10.42;4.14;;;;;;;23.81;55.62;99256.74;392358;104;1986044;-72
2021/06/23 03:44:49;;;;;;;10.29;3.80;;;;;;;23.72;55.54;99251.12;367921;104;1960841;-72
2021/06/23 03:46:13;;;;;;;15.69;4.53;;;;;;;23.77;55.49;99258.48;353298;113;1961847;-73
2021/06/23 03:47:25;;;;;;;14.47;3.98;;;;;;;23.97;55.42;99258.09;393443;104;1985975;-71
2021/06/23 03:48:32;;;;;;;9.48;3.76;;;;;;;23.93;55.21;99259.03;370799;108;1962058;-73
2021/06/23 03:49:44;;;;;;;16.71;3.89;;;;;;;24.16;54.91;99257.19;384021;106;1974061;-72
2021/06/23 03:50:50;;;;;;;12.69;5.21;;;;;;;24.14;54.76;99260.27;366186;109;1962008;-70
2021/06/23 03:52:03;;;;;;;15.57;4.01;;;;;;;24.36;54.57;99262.31;397552;104;1987001;-72
2021/06/23 03:53:16;;;;;;;12.22;3.85;;;;;;;24.48;54.38;99270.13;391792;104;1985983;-72
2021/06/23 03:54:23;;;;;;;14.71;4.72;;;;;;;24.47;54.02;99269.28;371795;109;1961935;-72
2021/06/23 03:55:35;;;;;;;17.42;6.23;;;;;;;24.67;53.83;99265.28;344891;104;2235877;-71
2021/06/23 03:56:42;;;;;;;12.06;3.98;;;;;;;24.65;53.68;99275.01;376644;107;1962046;-71
2021/06/23 03:58:06;;;;;;;13.08;4.71;;;;;;;24.71;53.51;99265.48;312233;107;2317837;-71
2021/06/23 03:59:18;;;;;;;12.43;4.13;;;;;;;24.92;53.13;99265.84;391455;104;2071794;-72
2021/06/23 04:00:29;;;;;;;9.92;3.98;;;;;;;24.86;53.04;99267.91;375458;107;1961967;-72
2021/06/23 04:01:37;;;;;;;9.09;3.34;;;;;;;24.92;52.91;99265.84;328986;107;2820017;-71
2021/06/23 04:02:48;;;;;;;10.62;4.04;;;;;;;24.96;52.73;99270.44;304402;107;2395960;-71
2021/06/23 04:04:00;;;;;;;16.14;6.31;;;;;;;25.11;52.43;99265.69;393598;104;1965007;-72
2021/06/23 04:05:14;;;;;;;12.33;4.54;;;;;;;25.03;52.36;99267.23;335315;107;2109995;-71
2021/06/23 04:06:22;;;;;;;11.32;3.95;;;;;;;25.08;52.18;99267.13;373558;107;1962963;-71
2021/06/23 04:07:35;;;;;;;8.33;3.56;;;;;;;25.20;52.02;99261.09;356220;104;2543014;-71
2021/06/23 04:08:40;;;;;;;14.93;4.26;;;;;;;25.11;52.18;99260.16;328652;105;2195006;-71
2021/06/23 04:09:52;;;;;;;13.36;4.18;;;;;;;25.24;52.12;99264.84;397617;104;1984825;-71
2021/06/23 04:11:03;;;;;;;11.12;4.73;;;;;;;25.18;52.10;99266.92;379683;105;1959697;-72
2021/06/23 04:12:28;;;;;;;19.88;4.76;;;;;;;25.26;51.97;99265.36;335911;105;2799960;-72
2021/06/23 04:13:53;;;;;;;11.49;4.17;;;;;;;25.47;51.67;99256.57;401954;101;2003016;-72
2021/06/23 04:14:59;;;;;;;13.08;5.04;;;;;;;25.36;51.37;99256.01;370383;108;1961984;-73
2021/06/23 04:16:13;;;;;;;14.89;5.53;;;;;;;25.50;51.40;99251.22;384807;106;2072943;-72
2021/06/23 04:17:19;;;;;;;11.81;5.16;;;;;;;25.41;51.37;99258.66;319545;111;2818988;-73
2021/06/23 04:18:43;;;;;;;11.17;4.12;;;;;;;25.41;51.19;99266.95;359547;110;1962065;-73
2021/06/23 04:19:55;;;;;;;9.18;3.47;;;;;;;25.50;51.27;99253.98;395231;104;1963897;-73
2021/06/23 04:21:05;;;;;;;8.90;3.91;;;;;;;25.42;51.16;99260.27;351343;107;1969835;-73
2021/06/23 04:22:17;;;;;;;12.80;3.83;;;;;;;25.49;51.08;99252.36;386299;106;1987063;-72
2021/06/23 04:23:23;;;;;;;14.10;4.76;;;;;;;25.40;51.20;99259.77;368202;107;1961781;-72
2021/06/23 04:24:47;;;;;;;14.47;4.78;;;;;;;25.44;51.05;99260.78;351488;108;1960842;-73
2021/06/23 04:25:59;;;;;;;11.33;4.19;;;;;;;25.59;50.96;99254.03;393122;104;1977744;-72
2021/06/23 04:28:55;;;;;;;10.87;4.54;;;;;;;25.54;50.49;99257.77;365815;103;1961738;-71
2021/06/23 04:30:04;;;;;;;11.96;3.67;;;;;;;25.51;50.50;99252.87;356214;112;1961792;-72
2021/06/23 04:31:16;;;;;;;13.60;4.88;;;;;;;25.59;50.28;99254.87;393770;104;1986015;-71
2021/06/23 04:32:22;;;;;;;13.61;4.48;;;;;;;25.48;50.34;99252.66;376152;107;1962046;-71
2021/06/23 04:33:34;;;;;;;12.86;3.97;;;;;;;25.57;50.16;99254.36;395873;104;1986016;-72
2021/06/23 04:34:41;;;;;;;14.27;4.39;;;;;;;25.47;50.20;99257.38;384408;103;1963384;-71
2021/06/23 04:36:07;;;;;;;14.91;5.51;;;;;;;25.45;50.13;99252.16;363811;105;1962170;-71
2021/06/23 04:37:18;;;;;;;13.26;5.07;;;;;;;25.55;50.04;99253.05;393373;104;1987073;-72
2021/06/23 04:38:26;;;;;;;15.66;5.72;;;;;;;25.43;50.13;99262.73;377057;107;1961858;-71
2021/06/23 04:39:32;;;;;;;13.62;4.59;;;;;;;25.44;50.03;99260.78;372375;108;1963053;-71
2021/06/23 04:40:44;;;;;;;13.16;4.70;;;;;;;25.56;49.96;99263.80;390682;103;2076989;-72
2021/06/23 04:41:50;;;;;;;9.23;3.69;;;;;;;25.45;50.00;99254.92;374793;107;1962068;-73
2021/06/23 04:42:56;;;;;;;13.00;4.12;;;;;;;25.48;49.79;99260.95;373219;106;1962010;-72
2021/06/23 04:44:01;;;;;;;8.93;3.68;;;;;;;25.47;49.70;99260.15;370250;107;1962001;-72
2021/06/23 04:45:14;;;;;;;13.82;4.76;;;;;;;25.59;49.83;99259.56;392583;104;1985921;-72
2021/06/23 04:46:28;;;;;;;13.19;5.41;;;;;;;25.49;49.92;99254.31;367813;108;1964338;-72
2021/06/23 04:47:41;;;;;;;9.07;3.52;;;;;;;25.63;49.90;99258.62;384910;103;2828012;-73
2021/06/23 04:48:47;;;;;;;13.85;6.01;;;;;;;25.56;49.87;99260.20;299045;107;2457951;-72
2021/06/23 04:49:59;;;;;;;16.27;5.61;;;;;;;25.68;49.90;99249.38;391123;103;2071873;-72
2021/06/23 04:51:07;;;;;;;11.46;4.86;;;;;;;25.62;49.91;99256.19;374206;106;1960891;-72
2021/06/23 04:52:33;;;;;;;14.20;4.99;;;;;;;25.65;49.98;99253.59;370114;108;1961908;-72
2021/06/23 04:53:45;;;;;;;10.78;4.17;;;;;;;25.82;49.79;99255.64;386004;106;1962817;-72
2021/06/23 04:54:50;;;;;;;11.93;4.28;;;;;;;25.75;49.90;99254.45;356499;111;1962849;-72
2021/06/23 04:56:03;;;;;;;15.87;5.03;;;;;;;25.87;49.82;99255.53;403444;101;1985983;-73
2021/06/23 04:57:10;;;;;;;10.55;4.44;;;;;;;25.80;49.85;99246.86;312318;105;2407941;-73
2021/06/23 04:58:35;;;;;;;12.44;4.70;;;;;;;25.86;49.68;99247.56;381805;105;1964964;-71
2021/06/23 04:59:47;;;;;;;15.56;5.54;;;;;;;26.02;49.41;99251.55;383634;106;1962081;-72
2021/06/23 05:00:53;;;;;;;15.09;5.33;;;;;;;25.96;49.31;99247.30;367783;108;1969060;-71
2021/06/23 05:02:25;;;;;;;10.08;4.36;;;;;;;26.17;48.78;99252.25;411765;99;1987040;-71
2021/06/23 05:03:30;;;;;;;14.24;5.17;;;;;;;26.10;48.09;99253.53;387554;101;1962024;-71
2021/06/23 05:04:48;;;;;;;12.24;4.56;;;;;;;26.25;48.18;99245.92;393863;104;1986971;-72
2021/06/23 05:05:57;;;;;;;12.04;4.37;;;;;;;26.20;48.27;99254.41;300000;107;2456891;-72
2021/06/23 05:07:19;;;;;;;13.24;5.29;;;;;;;26.26;48.09;99247.57;339395;107;2672009;-72
2021/06/23 05:08:31;;;;;;;12.13;6.56;;;;;;;26.46;47.68;99248.92;391689;104;1962027;-71
2021/06/23 05:09:38;;;;;;;11.54;4.82;;;;;;;26.41;47.65;99249.06;372479;107;1968929;-71
2021/06/23 05:10:50;;;;;;;10.78;4.21;;;;;;;26.59;47.39;99248.00;373858;109;1965052;-72
2021/06/23 05:11:55;;;;;;;23.15;5.02;;;;;;;26.54;47.21;99245.39;358691;111;1961961;-72
2021/06/23 05:13:08;;;;;;;11.35;4.39;;;;;;;26.74;47.06;99246.74;391384;103;2071963;-72
2021/06/23 05:14:14;;;;;;;12.09;3.99;;;;;;;26.69;46.98;99250.48;372641;108;1962991;-72
2021/06/23 05:15:39;;;;;;;16.11;5.09;;;;;;;26.76;46.91;99250.02;334344;107;2648950;-72
2021/06/23 05:16:51;;;;;;;14.21;5.84;;;;;;;26.96;46.65;99248.55;394082;104;1986893;-73
2021/06/23 05:17:57;;;;;;;9.49;3.92;;;;;;;26.91;46.53;99244.00;371752;105;1961984;-72
2021/06/23 05:19:10;;;;;;;15.07;4.93;;;;;;;27.09;46.17;99247.57;340343;104;2576076;-71
2021/06/23 05:20:16;;;;;;;9.67;5.07;;;;;;;27.04;45.96;99244.96;375350;106;1961026;-72
2021/06/23 05:21:40;;;;;;;14.65;4.71;;;;;;;27.09;45.97;99243.99;372508;106;1961980;-72
2021/06/23 05:22:52;;;;;;;15.47;5.16;;;;;;;27.29;45.85;99245.34;388420;104;2077129;-71
2021/06/23 05:23:57;;;;;;;12.62;5.03;;;;;;;27.26;45.56;99251.54;352224;106;1962004;-69
2021/06/23 05:25:03;;;;;;;14.52;5.45;;;;;;;27.30;45.35;99244.98;329533;109;2161049;-72
2021/06/23 05:26:15;;;;;;;21.00;10.01;;;;;;;27.48;44.92;99244.98;393986;104;1965050;-72
2021/06/23 05:27:20;;;;;;;15.91;7.97;;;;;;;27.44;44.95;99243.99;373880;106;1961991;-72
2021/06/23 05:28:33;;;;;;;11.83;6.62;;;;;;;27.61;44.73;99249.53;395790;104;1986994;-72
2021/06/23 05:29:39;;;;;;;13.79;4.82;;;;;;;27.55;44.64;99251.66;375271;106;1962963;-73
2021/06/23 05:31:03;;;;;;;13.62;3.74;;;;;;;27.60;44.48;99250.66;378172;106;1962908;-72